createdAt,value
2017-01-07T00:00:08.818Z,0
2017-01-07T00:00:49.307Z,0
2017-01-07T00:01:29.991Z,0
2017-01-07T00:02:10.489Z,0
2017-01-07T00:02:50.976Z,0
2017-01-07T00:03:31.466Z,0
2017-01-07T00:04:11.947Z,0
2017-01-07T00:04:52.438Z,0
2017-01-07T00:05:32.934Z,0
2017-01-07T00:06:13.429Z,0
2017-01-07T00:06:53.932Z,0
2017-01-07T00:07:34.424Z,0
2017-01-07T00:08:14.939Z,0
2017-01-07T00:08:55.435Z,0
2017-01-07T00:09:35.934Z,0
2017-01-07T00:10:16.422Z,0
2017-01-07T00:10:56.936Z,0
2017-01-07T00:11:37.419Z,0
2017-01-07T00:12:17.906Z,0
2017-01-07T00:12:58.386Z,0
2017-01-07T00:13:38.896Z,0
2017-01-07T00:14:19.385Z,0
2017-01-07T00:14:59.878Z,0
2017-01-07T00:15:40.376Z,0
2017-01-07T00:16:20.861Z,0
2017-01-07T00:17:01.352Z,0
2017-01-07T00:17:41.853Z,0
2017-01-07T00:18:22.343Z,0
2017-01-07T00:19:02.829Z,0
2017-01-07T00:19:43.323Z,0
2017-01-07T00:20:23.819Z,0
2017-01-07T00:21:04.309Z,0
2017-01-07T00:21:44.797Z,0
2017-01-07T00:22:25.276Z,0
2017-01-07T00:23:05.758Z,0
2017-01-07T00:23:46.247Z,0
2017-01-07T00:24:26.735Z,0
2017-01-07T00:25:07.233Z,0
2017-01-07T00:25:47.722Z,0
2017-01-07T00:26:28.216Z,0
2017-01-07T00:27:08.714Z,0
2017-01-07T00:27:49.204Z,0
2017-01-07T00:28:29.690Z,0
2017-01-07T00:29:10.169Z,0
2017-01-07T00:29:50.669Z,0
2017-01-07T00:30:31.156Z,0
2017-01-07T00:31:11.644Z,0
2017-01-07T00:31:52.124Z,0
2017-01-07T00:32:32.615Z,0
2017-01-07T00:33:13.101Z,0
2017-01-07T00:33:53.603Z,0
2017-01-07T00:34:34.103Z,0
2017-01-07T00:35:14.597Z,0
2017-01-07T00:35:55.093Z,0
2017-01-07T00:36:35.573Z,0
2017-01-07T00:37:16.204Z,0
2017-01-07T00:37:56.705Z,0
2017-01-07T00:38:37.193Z,0
2017-01-07T00:39:17.699Z,0
2017-01-07T00:39:58.192Z,0
2017-01-07T00:40:38.702Z,0
2017-01-07T00:41:19.187Z,0
2017-01-07T00:41:59.675Z,0
2017-01-07T00:42:40.160Z,0
2017-01-07T00:43:20.669Z,0
2017-01-07T00:44:01.154Z,0
2017-01-07T00:44:41.651Z,0
2017-01-07T00:45:22.146Z,0
2017-01-07T00:46:02.630Z,0
2017-01-07T00:46:43.120Z,0
2017-01-07T00:47:23.604Z,0
2017-01-07T00:48:04.108Z,0
2017-01-07T00:48:44.600Z,0
2017-01-07T00:49:25.088Z,0
2017-01-07T00:50:05.590Z,0
2017-01-07T00:50:46.082Z,0
2017-01-07T00:51:26.590Z,0
2017-01-07T00:52:07.071Z,0
2017-01-07T00:52:47.558Z,0
2017-01-07T00:53:28.039Z,0
2017-01-07T00:54:08.532Z,0
2017-01-07T00:54:49.027Z,0
2017-01-07T00:55:29.523Z,0
2017-01-07T00:56:10.005Z,0
2017-01-07T00:56:50.497Z,0
2017-01-07T00:57:30.993Z,0
2017-01-07T00:58:11.476Z,0
2017-01-07T00:58:51.963Z,0
2017-01-07T00:59:32.470Z,0
2017-01-07T01:00:12.960Z,0
2017-01-07T01:00:53.451Z,0
2017-01-07T01:01:33.936Z,0
2017-01-07T01:02:14.435Z,0
2017-01-07T01:02:54.926Z,0
2017-01-07T01:03:35.412Z,0
2017-01-07T01:04:15.914Z,0
2017-01-07T01:04:56.405Z,0
2017-01-07T01:05:36.899Z,0
2017-01-07T01:06:17.409Z,0
2017-01-07T01:06:57.898Z,0
2017-01-07T01:07:38.410Z,0
2017-01-07T01:08:18.915Z,0
2017-01-07T01:08:59.410Z,0
2017-01-07T01:09:39.913Z,0
2017-01-07T01:10:20.409Z,0
2017-01-07T01:11:00.911Z,0
2017-01-07T01:11:41.404Z,0
2017-01-07T01:12:21.910Z,0
2017-01-07T01:13:02.402Z,0
2017-01-07T01:13:42.909Z,0
2017-01-07T01:14:23.530Z,0
2017-01-07T01:16:36.311Z,0
2017-01-07T01:17:16.792Z,0
2017-01-07T01:17:57.278Z,0
2017-01-07T01:18:37.769Z,0
2017-01-07T01:19:18.266Z,0
2017-01-07T01:19:58.756Z,0
2017-01-07T01:20:39.245Z,0
2017-01-07T01:21:19.725Z,0
2017-01-07T01:22:00.217Z,0
2017-01-07T01:22:40.817Z,0
2017-01-07T01:23:21.298Z,0
2017-01-07T01:24:01.778Z,0
2017-01-07T01:24:42.268Z,0
2017-01-07T01:25:22.754Z,0
2017-01-07T01:26:03.236Z,0
2017-01-07T01:26:43.729Z,0
2017-01-07T01:27:24.210Z,0
2017-01-07T01:28:04.710Z,0
2017-01-07T01:28:45.210Z,0
2017-01-07T01:29:25.704Z,0
2017-01-07T01:30:06.208Z,0
2017-01-07T01:30:46.708Z,0
2017-01-07T01:31:27.203Z,0
2017-01-07T01:32:07.704Z,0
2017-01-07T01:32:48.193Z,0
2017-01-07T01:33:28.685Z,0
2017-01-07T01:34:09.162Z,0
2017-01-07T01:34:49.664Z,0
2017-01-07T01:35:30.149Z,0
2017-01-07T01:36:10.639Z,0
2017-01-07T01:36:51.124Z,0
2017-01-07T01:37:31.605Z,0
2017-01-07T01:38:12.082Z,0
2017-01-07T01:38:52.581Z,0
2017-01-07T01:39:33.097Z,0
2017-01-07T01:40:13.592Z,0
2017-01-07T01:40:54.081Z,0
2017-01-07T01:41:34.573Z,0
2017-01-07T01:42:15.069Z,0
2017-01-07T01:42:55.559Z,0
2017-01-07T01:43:36.042Z,0
2017-01-07T01:44:16.536Z,0
2017-01-07T01:44:57.039Z,0
2017-01-07T01:45:37.530Z,0
2017-01-07T01:46:18.015Z,0
2017-01-07T01:46:58.493Z,0
2017-01-07T01:47:38.992Z,0
2017-01-07T01:48:19.479Z,0
2017-01-07T01:48:59.982Z,0
2017-01-07T01:49:40.483Z,0
2017-01-07T01:50:20.970Z,0
2017-01-07T01:51:01.460Z,0
2017-01-07T01:51:41.946Z,0
2017-01-07T01:52:22.446Z,0
2017-01-07T01:53:02.927Z,0
2017-01-07T01:53:43.417Z,0
2017-01-07T01:54:23.911Z,0
2017-01-07T01:55:04.401Z,0
2017-01-07T01:55:44.890Z,0
2017-01-07T01:56:25.383Z,0
2017-01-07T01:57:05.865Z,0
2017-01-07T01:57:46.358Z,0
2017-01-07T01:58:26.956Z,0
2017-01-07T01:59:07.471Z,0
2017-01-07T01:59:47.971Z,0
2017-01-07T02:00:28.474Z,0
2017-01-07T02:01:08.971Z,0
2017-01-07T02:01:49.474Z,0
2017-01-07T02:02:29.957Z,0
2017-01-07T02:03:10.470Z,0
2017-01-07T02:03:50.926Z,0
2017-01-07T02:04:31.426Z,0
2017-01-07T02:05:11.922Z,0
2017-01-07T02:05:52.417Z,0
2017-01-07T02:06:32.919Z,0
2017-01-07T02:07:13.405Z,0
2017-01-07T02:07:53.899Z,0
2017-01-07T02:08:34.394Z,0
2017-01-07T02:09:14.881Z,0
2017-01-07T02:09:55.369Z,0
2017-01-07T02:10:35.860Z,0
2017-01-07T02:11:16.362Z,0
2017-01-07T02:11:56.856Z,0
2017-01-07T02:12:37.342Z,0
2017-01-07T02:13:17.859Z,0
2017-01-07T02:13:58.358Z,0
2017-01-07T02:14:38.848Z,0
2017-01-07T02:15:19.326Z,0
2017-01-07T02:15:59.816Z,0
2017-01-07T02:16:40.309Z,0
2017-01-07T02:17:20.807Z,0
2017-01-07T02:18:01.292Z,0
2017-01-07T02:18:41.779Z,0
2017-01-07T02:19:22.276Z,0
2017-01-07T02:20:02.765Z,0
2017-01-07T02:20:43.250Z,0
2017-01-07T02:21:23.735Z,0
2017-01-07T02:22:04.217Z,0
2017-01-07T02:22:44.702Z,0
2017-01-07T02:23:25.194Z,0
2017-01-07T02:24:05.681Z,0
2017-01-07T02:24:46.179Z,0
2017-01-07T02:25:26.655Z,0
2017-01-07T02:26:07.144Z,0
2017-01-07T02:26:47.628Z,0
2017-01-07T02:27:28.113Z,0
2017-01-07T02:28:08.597Z,0
2017-01-07T02:28:49.089Z,0
2017-01-07T02:29:29.587Z,0
2017-01-07T02:30:10.078Z,0
2017-01-07T02:30:50.569Z,0
2017-01-07T02:31:31.077Z,0
2017-01-07T02:32:11.581Z,0
2017-01-07T02:32:52.072Z,0
2017-01-07T02:33:32.559Z,0
2017-01-07T02:34:13.103Z,0
2017-01-07T02:34:53.604Z,0
2017-01-07T02:35:34.105Z,0
2017-01-07T02:36:14.589Z,0
2017-01-07T02:36:55.084Z,0
2017-01-07T02:37:35.580Z,0
2017-01-07T02:38:16.067Z,0
2017-01-07T02:38:56.553Z,0
2017-01-07T02:39:37.034Z,0
2017-01-07T02:40:17.516Z,0
2017-01-07T02:40:58.004Z,0
2017-01-07T02:41:38.483Z,0
2017-01-07T02:42:18.995Z,0
2017-01-07T02:42:59.481Z,0
2017-01-07T02:43:39.964Z,0
2017-01-07T02:44:20.446Z,0
2017-01-07T02:45:00.926Z,0
2017-01-07T02:45:41.423Z,0
2017-01-07T02:46:21.914Z,0
2017-01-07T02:47:02.411Z,0
2017-01-07T02:47:42.900Z,0
2017-01-07T02:48:23.415Z,0
2017-01-07T02:49:03.916Z,0
2017-01-07T02:49:44.412Z,0
2017-01-07T02:50:24.915Z,0
2017-01-07T02:51:05.407Z,0
2017-01-07T02:51:45.911Z,0
2017-01-07T02:52:26.393Z,0
2017-01-07T02:53:06.879Z,0
2017-01-07T02:53:47.365Z,0
2017-01-07T02:54:27.853Z,0
2017-01-07T02:55:08.340Z,0
2017-01-07T02:55:48.845Z,0
2017-01-07T02:56:29.352Z,0
2017-01-07T02:57:09.845Z,0
2017-01-07T02:57:50.358Z,0
2017-01-07T02:58:30.847Z,0
2017-01-07T02:59:11.333Z,0
2017-01-07T02:59:51.812Z,0
2017-01-07T03:00:32.302Z,0
2017-01-07T03:01:12.800Z,0
2017-01-07T03:01:53.295Z,0
2017-01-07T03:02:33.801Z,0
2017-01-07T03:03:14.292Z,0
2017-01-07T03:03:54.797Z,0
2017-01-07T03:04:35.286Z,0
2017-01-07T03:05:15.771Z,0
2017-01-07T03:05:56.253Z,0
2017-01-07T03:06:36.748Z,0
2017-01-07T03:07:17.249Z,0
2017-01-07T03:07:57.729Z,0
2017-01-07T03:08:38.240Z,0
2017-01-07T03:09:18.728Z,0
2017-01-07T03:09:59.218Z,0
2017-01-07T03:10:39.694Z,0
2017-01-07T03:11:20.181Z,0
2017-01-07T03:12:00.688Z,0
2017-01-07T03:12:41.175Z,0
2017-01-07T03:13:21.668Z,0
2017-01-07T03:14:02.188Z,0
2017-01-07T03:14:42.683Z,0
2017-01-07T03:15:23.169Z,0
2017-01-07T03:16:03.652Z,0
2017-01-07T03:16:44.135Z,0
2017-01-07T03:17:24.625Z,0
2017-01-07T03:18:05.113Z,0
2017-01-07T03:18:45.591Z,0
2017-01-07T03:19:26.066Z,0
2017-01-07T03:21:38.855Z,0
2017-01-07T03:22:19.368Z,0
2017-01-07T03:22:59.848Z,0
2017-01-07T03:25:17.679Z,0
2017-01-07T03:25:58.167Z,0
2017-01-07T03:26:38.671Z,0
2017-01-07T03:27:19.154Z,0
2017-01-07T03:27:59.673Z,0
2017-01-07T03:28:40.158Z,0
2017-01-07T03:29:20.650Z,0
2017-01-07T03:30:01.272Z,0
2017-01-07T03:30:41.765Z,0
2017-01-07T03:31:22.255Z,0
2017-01-07T03:32:02.733Z,0
2017-01-07T03:32:43.216Z,0
2017-01-07T03:33:23.714Z,0
2017-01-07T03:34:04.217Z,0
2017-01-07T03:34:44.696Z,0
2017-01-07T03:35:25.178Z,0
2017-01-07T03:36:05.664Z,0
2017-01-07T03:36:46.148Z,0
2017-01-07T03:37:26.633Z,0
2017-01-07T03:38:07.117Z,0
2017-01-07T03:38:47.607Z,0
2017-01-07T03:39:28.109Z,0
2017-01-07T03:40:08.595Z,0
2017-01-07T03:40:49.085Z,0
2017-01-07T03:41:29.575Z,0
2017-01-07T03:42:10.075Z,0
2017-01-07T03:42:50.561Z,0
2017-01-07T03:43:31.054Z,0
2017-01-07T03:44:11.553Z,0
2017-01-07T03:44:52.041Z,0
2017-01-07T03:45:32.543Z,0
2017-01-07T03:46:13.037Z,0
2017-01-07T03:46:53.522Z,0
2017-01-07T03:47:34.009Z,0
2017-01-07T03:48:14.501Z,0
2017-01-07T03:48:54.995Z,0
2017-01-07T03:49:35.516Z,0
2017-01-07T03:50:15.999Z,0
2017-01-07T03:50:56.488Z,0
2017-01-07T03:51:36.976Z,0
2017-01-07T03:52:17.496Z,0
2017-01-07T03:52:57.994Z,0
2017-01-07T03:53:38.486Z,0
2017-01-07T03:54:18.971Z,0
2017-01-07T03:54:59.457Z,0
2017-01-07T03:55:39.944Z,0
2017-01-07T03:56:20.437Z,0
2017-01-07T03:57:00.941Z,0
2017-01-07T03:57:41.435Z,0
2017-01-07T03:58:21.935Z,0
2017-01-07T03:59:02.444Z,0
2017-01-07T03:59:42.926Z,0
2017-01-07T04:00:23.413Z,0
2017-01-07T04:01:03.894Z,0
2017-01-07T04:01:44.381Z,0
2017-01-07T04:02:24.881Z,0
2017-01-07T04:03:05.385Z,0
2017-01-07T04:03:45.886Z,0
2017-01-07T04:04:26.371Z,0
2017-01-07T04:05:06.864Z,0
2017-01-07T04:05:47.367Z,0
2017-01-07T04:06:27.848Z,0
2017-01-07T04:07:08.336Z,0
2017-01-07T04:07:48.830Z,0
2017-01-07T04:08:29.331Z,0
2017-01-07T04:09:09.820Z,0
2017-01-07T04:09:50.306Z,0
2017-01-07T04:10:30.787Z,0
2017-01-07T04:11:11.278Z,0
2017-01-07T04:11:51.771Z,0
2017-01-07T04:12:32.264Z,0
2017-01-07T04:13:12.749Z,0
2017-01-07T04:13:53.231Z,0
2017-01-07T04:14:33.738Z,0
2017-01-07T04:15:14.225Z,0
2017-01-07T04:15:54.718Z,0
2017-01-07T04:16:35.203Z,0
2017-01-07T04:17:15.725Z,0
2017-01-07T04:17:56.219Z,0
2017-01-07T04:18:36.708Z,0
2017-01-07T04:19:17.219Z,0
2017-01-07T04:19:57.715Z,0
2017-01-07T04:20:38.215Z,0
2017-01-07T04:21:18.720Z,0
2017-01-07T04:21:59.181Z,0
2017-01-07T04:22:39.668Z,0
2017-01-07T04:23:20.153Z,0
2017-01-07T04:24:00.658Z,0
2017-01-07T04:24:41.148Z,0
2017-01-07T04:25:21.652Z,0
2017-01-07T04:26:02.155Z,0
2017-01-07T04:26:42.661Z,0
2017-01-07T04:27:23.146Z,0
2017-01-07T04:28:03.636Z,0
2017-01-07T04:28:44.118Z,0
2017-01-07T04:29:24.625Z,0
2017-01-07T04:30:05.111Z,0
2017-01-07T04:30:45.607Z,0
2017-01-07T04:31:26.107Z,0
2017-01-07T04:32:06.584Z,0
2017-01-07T04:32:47.079Z,0
2017-01-07T04:33:27.562Z,0
2017-01-07T04:34:08.067Z,0
2017-01-07T04:34:48.551Z,0
2017-01-07T04:35:29.047Z,0
2017-01-07T04:36:09.551Z,0
2017-01-07T04:36:50.041Z,0
2017-01-07T04:37:30.531Z,0
2017-01-07T04:38:11.026Z,0
2017-01-07T04:38:51.516Z,0
2017-01-07T04:39:32.002Z,0
2017-01-07T04:40:12.499Z,0
2017-01-07T04:40:53.001Z,0
2017-01-07T04:41:33.482Z,0
2017-01-07T04:42:13.973Z,0
2017-01-07T04:42:54.456Z,0
2017-01-07T04:43:34.969Z,0
2017-01-07T04:44:15.452Z,0
2017-01-07T04:44:55.929Z,0
2017-01-07T04:45:36.439Z,0
2017-01-07T04:46:16.932Z,0
2017-01-07T04:46:57.414Z,0
2017-01-07T04:47:37.896Z,0
2017-01-07T04:48:18.386Z,0
2017-01-07T04:48:58.884Z,0
2017-01-07T04:49:39.375Z,0
2017-01-07T04:50:19.860Z,0
2017-01-07T04:51:00.343Z,0
2017-01-07T04:51:40.837Z,0
2017-01-07T04:52:21.332Z,0
2017-01-07T04:53:01.826Z,0
2017-01-07T04:53:42.332Z,0
2017-01-07T04:54:22.823Z,0
2017-01-07T04:55:03.329Z,0
2017-01-07T04:55:43.824Z,0
2017-01-07T04:56:24.304Z,0
2017-01-07T04:57:04.816Z,0
2017-01-07T04:57:45.305Z,0
2017-01-07T04:58:25.805Z,0
2017-01-07T04:59:06.291Z,0
2017-01-07T04:59:46.782Z,0
2017-01-07T05:00:27.272Z,0
2017-01-07T05:01:07.770Z,0
2017-01-07T05:01:48.263Z,0
2017-01-07T05:02:28.766Z,0
2017-01-07T05:03:09.269Z,0
2017-01-07T05:03:49.777Z,0
2017-01-07T05:04:30.261Z,0
2017-01-07T05:05:10.749Z,0
2017-01-07T05:05:51.233Z,0
2017-01-07T05:06:31.722Z,0
2017-01-07T05:07:12.217Z,0
2017-01-07T05:07:52.708Z,0
2017-01-07T05:08:33.219Z,0
2017-01-07T05:09:13.713Z,0
2017-01-07T05:09:54.217Z,0
2017-01-07T05:10:34.697Z,0
2017-01-07T05:11:15.188Z,0
2017-01-07T05:11:55.672Z,0
2017-01-07T05:12:36.151Z,0
2017-01-07T05:13:16.640Z,0
2017-01-07T05:13:57.120Z,0
2017-01-07T05:14:37.613Z,0
2017-01-07T05:15:18.109Z,0
2017-01-07T05:15:58.674Z,0
2017-01-07T05:16:39.148Z,0
2017-01-07T05:17:19.637Z,0
2017-01-07T05:18:00.157Z,0
2017-01-07T05:18:40.657Z,0
2017-01-07T05:19:21.138Z,0
2017-01-07T05:20:01.623Z,0
2017-01-07T05:20:42.107Z,0
2017-01-07T05:21:22.593Z,0
2017-01-07T05:22:03.076Z,0
2017-01-07T05:22:43.563Z,0
2017-01-07T05:23:24.054Z,0
2017-01-07T05:24:04.545Z,0
2017-01-07T05:24:45.040Z,0
2017-01-07T05:25:25.524Z,0
2017-01-07T05:26:06.012Z,0
2017-01-07T05:26:46.512Z,0
2017-01-07T05:27:26.999Z,0
2017-01-07T05:28:07.482Z,0
2017-01-07T05:28:47.977Z,0
2017-01-07T05:29:28.487Z,0
2017-01-07T05:30:08.984Z,0
2017-01-07T05:30:49.462Z,0
2017-01-07T05:31:29.975Z,0
2017-01-07T05:32:10.474Z,0
2017-01-07T05:32:50.993Z,0
2017-01-07T05:33:31.485Z,0
2017-01-07T05:34:11.986Z,0
2017-01-07T05:34:52.476Z,0
2017-01-07T05:35:32.961Z,0
2017-01-07T05:36:13.502Z,0
2017-01-07T05:36:53.989Z,0
2017-01-07T05:37:34.473Z,0
2017-01-07T05:38:14.960Z,0
2017-01-07T05:38:55.440Z,0
2017-01-07T05:39:35.933Z,0
2017-01-07T05:40:16.430Z,0
2017-01-07T05:40:56.916Z,0
2017-01-07T05:41:38.357Z,0
2017-01-07T05:42:18.838Z,0
2017-01-07T05:42:59.448Z,0
2017-01-07T05:43:41.161Z,0
2017-01-07T05:44:20.728Z,0
2017-01-07T05:45:01.358Z,0
2017-01-07T05:45:43.654Z,0
2017-01-07T05:46:22.884Z,0
2017-01-07T05:47:03.375Z,0
2017-01-07T05:47:43.865Z,0
2017-01-07T05:48:24.373Z,0
2017-01-07T05:49:04.866Z,0
2017-01-07T05:49:45.369Z,0
2017-01-07T05:50:26.654Z,0
2017-01-07T05:51:06.343Z,0
2017-01-07T05:51:46.830Z,0
2017-01-07T05:52:27.340Z,0
2017-01-07T05:53:08.811Z,0
2017-01-07T05:53:49.292Z,0
2017-01-07T05:54:30.656Z,0
2017-01-07T05:55:10.282Z,0
2017-01-07T05:55:50.774Z,0
2017-01-07T05:56:31.257Z,0
2017-01-07T05:57:11.738Z,0
2017-01-07T05:57:52.248Z,0
2017-01-07T05:58:32.736Z,0
2017-01-07T05:59:13.224Z,0
2017-01-07T05:59:53.724Z,0
2017-01-07T06:00:34.215Z,0
2017-01-07T06:01:14.708Z,0
2017-01-07T06:01:55.806Z,0
2017-01-07T06:02:36.304Z,0
2017-01-07T06:03:16.789Z,0
2017-01-07T06:03:58.229Z,0
2017-01-07T06:04:38.718Z,0
2017-01-07T06:05:20.158Z,0
2017-01-07T06:05:59.685Z,0
2017-01-07T06:06:40.167Z,0
2017-01-07T06:07:20.671Z,0
2017-01-07T06:08:01.156Z,0
2017-01-07T06:08:42.285Z,0
2017-01-07T06:09:22.771Z,0
2017-01-07T06:10:03.988Z,0
2017-01-07T06:10:44.998Z,0
2017-01-07T06:11:25.488Z,0
2017-01-07T06:12:05.991Z,0
2017-01-07T06:12:47.177Z,0
2017-01-07T06:13:27.698Z,0
2017-01-07T06:14:08.785Z,0
2017-01-07T06:14:49.297Z,0
2017-01-07T06:15:29.791Z,0
2017-01-07T06:16:10.293Z,0
2017-01-07T06:16:50.820Z,0
2017-01-07T06:17:31.321Z,0
2017-01-07T06:18:11.812Z,0
2017-01-07T06:18:53.164Z,0
2017-01-07T06:19:32.768Z,0
2017-01-07T06:20:13.258Z,0
2017-01-07T06:20:53.742Z,0
2017-01-07T06:21:34.228Z,0
2017-01-07T06:22:15.490Z,0
2017-01-07T06:22:55.987Z,0
2017-01-07T06:23:36.456Z,0
2017-01-07T06:24:17.664Z,0
2017-01-07T06:24:57.417Z,0
2017-01-07T06:25:37.909Z,0
2017-01-07T06:26:18.421Z,0
2017-01-07T06:26:58.912Z,0
2017-01-07T06:27:39.400Z,0
2017-01-07T06:28:19.890Z,0
2017-01-07T06:29:00.374Z,0
2017-01-07T06:29:40.861Z,0
2017-01-07T06:30:21.354Z,0
2017-01-07T06:31:01.861Z,0
2017-01-07T06:31:42.345Z,0
2017-01-07T06:32:22.823Z,0
2017-01-07T06:33:03.308Z,0
2017-01-07T06:33:43.820Z,0
2017-01-07T06:34:24.320Z,0
2017-01-07T06:35:05.669Z,0
2017-01-07T06:35:45.306Z,0
2017-01-07T06:36:25.812Z,0
2017-01-07T06:37:06.309Z,0
2017-01-07T06:37:46.815Z,0
2017-01-07T06:38:27.304Z,0
2017-01-07T06:39:07.817Z,0
2017-01-07T06:39:48.300Z,0
2017-01-07T06:40:28.790Z,0
2017-01-07T06:41:09.272Z,0
2017-01-07T06:41:49.760Z,0
2017-01-07T06:42:30.263Z,0
2017-01-07T06:43:10.749Z,0
2017-01-07T06:43:52.173Z,0
2017-01-07T06:44:32.339Z,0
2017-01-07T06:45:12.843Z,0
2017-01-07T06:45:53.318Z,0
2017-01-07T06:46:33.805Z,0
2017-01-07T06:47:15.171Z,0
2017-01-07T06:47:54.771Z,0
2017-01-07T06:48:35.254Z,0
2017-01-07T06:49:15.734Z,0
2017-01-07T06:49:56.221Z,0
2017-01-07T06:50:36.716Z,0
2017-01-07T06:51:17.210Z,0
2017-01-07T06:51:57.707Z,0
2017-01-07T06:52:38.364Z,0
2017-01-07T06:53:18.862Z,0
2017-01-07T06:53:59.361Z,0
2017-01-07T06:54:39.860Z,0
2017-01-07T06:55:20.347Z,0
2017-01-07T06:56:00.838Z,0
2017-01-07T06:56:41.321Z,0
2017-01-07T06:57:21.811Z,0
2017-01-07T06:58:02.307Z,0
2017-01-07T06:58:42.795Z,0
2017-01-07T06:59:23.292Z,0
2017-01-07T07:00:03.779Z,0
2017-01-07T07:00:44.282Z,0
2017-01-07T07:01:24.762Z,0
2017-01-07T07:02:05.251Z,0
2017-01-07T07:02:46.604Z,0
2017-01-07T07:03:27.088Z,0
2017-01-07T07:04:07.573Z,0
2017-01-07T07:04:48.064Z,0
2017-01-07T07:05:28.570Z,0
2017-01-07T07:06:09.056Z,0
2017-01-07T07:06:49.540Z,0
2017-01-07T07:07:30.036Z,0
2017-01-07T07:08:10.535Z,0
2017-01-07T07:08:51.024Z,0
2017-01-07T07:09:31.502Z,0
2017-01-07T07:10:11.996Z,0
2017-01-07T07:10:52.498Z,0
2017-01-07T07:11:32.979Z,0
2017-01-07T07:12:13.470Z,0
2017-01-07T07:12:53.982Z,0
2017-01-07T07:13:34.457Z,0
2017-01-07T07:14:14.944Z,0
2017-01-07T07:14:55.426Z,0
2017-01-07T07:15:35.916Z,0
2017-01-07T07:16:16.405Z,4
2017-01-07T07:16:56.902Z,4
2017-01-07T07:17:37.421Z,4
2017-01-07T07:18:17.888Z,4
2017-01-07T07:18:58.389Z,4
2017-01-07T07:19:38.904Z,4
2017-01-07T07:20:19.390Z,4
2017-01-07T07:20:59.880Z,4
2017-01-07T07:21:40.367Z,4
2017-01-07T07:22:20.844Z,4
2017-01-07T07:23:01.369Z,4
2017-01-07T07:23:41.834Z,4
2017-01-07T07:24:22.320Z,8
2017-01-07T07:25:03.314Z,4
2017-01-07T07:25:43.795Z,8
2017-01-07T07:26:24.289Z,8
2017-01-07T07:27:04.786Z,8
2017-01-07T07:27:46.181Z,12
2017-01-07T07:28:25.752Z,12
2017-01-07T07:29:06.250Z,12
2017-01-07T07:29:46.744Z,8
2017-01-07T07:30:27.852Z,8
2017-01-07T07:31:08.361Z,8
2017-01-07T07:31:49.682Z,8
2017-01-07T07:32:29.332Z,8
2017-01-07T07:33:10.682Z,8
2017-01-07T07:33:50.310Z,8
2017-01-07T07:34:30.811Z,12
2017-01-07T07:35:11.289Z,12
2017-01-07T07:35:51.763Z,16
2017-01-07T07:36:32.767Z,16
2017-01-07T07:37:13.255Z,12
2017-01-07T07:37:54.397Z,16
2017-01-07T07:38:34.900Z,16
2017-01-07T07:39:15.390Z,16
2017-01-07T07:39:55.865Z,16
2017-01-07T07:40:37.184Z,16
2017-01-07T07:41:16.837Z,16
2017-01-07T07:41:57.455Z,16
2017-01-07T07:42:37.936Z,20
2017-01-07T07:43:19.191Z,20
2017-01-07T07:43:58.922Z,20
2017-01-07T07:44:39.415Z,24
2017-01-07T07:45:19.894Z,24
2017-01-07T07:46:00.382Z,28
2017-01-07T07:46:40.864Z,24
2017-01-07T07:47:21.348Z,28
2017-01-07T07:48:01.850Z,28
2017-01-07T07:48:42.338Z,32
2017-01-07T07:49:22.827Z,28
2017-01-07T07:50:03.321Z,32
2017-01-07T07:50:43.801Z,32
2017-01-07T07:53:17.386Z,32
2017-01-07T07:53:57.868Z,36
2017-01-07T07:54:38.359Z,40
2017-01-07T07:55:18.845Z,36
2017-01-07T07:56:00.268Z,36
2017-01-07T07:56:39.815Z,44
2017-01-07T07:57:20.312Z,44
2017-01-07T07:58:00.788Z,48
2017-01-07T07:58:41.276Z,48
2017-01-07T07:59:21.757Z,48
2017-01-07T08:00:02.382Z,48
2017-01-07T08:00:42.867Z,48
2017-01-07T08:01:23.341Z,52
2017-01-07T08:02:03.827Z,52
2017-01-07T08:02:44.315Z,48
2017-01-07T08:03:24.970Z,52
2017-01-07T08:04:05.465Z,56
2017-01-07T08:04:45.962Z,60
2017-01-07T08:05:27.271Z,52
2017-01-07T08:06:06.918Z,56
2017-01-07T08:06:47.409Z,60
2017-01-07T08:07:29.435Z,68
2017-01-07T08:08:09.937Z,64
2017-01-07T08:08:50.430Z,68
2017-01-07T08:09:30.943Z,68
2017-01-07T08:10:11.436Z,68
2017-01-07T08:10:51.921Z,68
2017-01-07T08:11:32.418Z,68
2017-01-07T08:12:12.888Z,68
2017-01-07T08:12:53.382Z,68
2017-01-07T08:13:34.773Z,68
2017-01-07T08:14:14.495Z,68
2017-01-07T08:14:54.993Z,72
2017-01-07T08:15:35.483Z,76
2017-01-07T08:16:15.958Z,72
2017-01-07T08:16:56.448Z,72
2017-01-07T08:17:36.937Z,72
2017-01-07T08:18:17.481Z,72
2017-01-07T08:18:57.972Z,80
2017-01-07T08:19:38.449Z,84
2017-01-07T08:20:18.999Z,80
2017-01-07T08:20:59.484Z,80
2017-01-07T08:21:40.774Z,80
2017-01-07T08:22:20.481Z,88
2017-01-07T08:23:00.975Z,84
2017-01-07T08:23:41.456Z,80
2017-01-07T08:24:21.984Z,88
2017-01-07T08:25:02.473Z,92
2017-01-07T08:25:42.969Z,92
2017-01-07T08:26:23.442Z,96
2017-01-07T08:27:03.932Z,104
2017-01-07T08:27:44.425Z,108
2017-01-07T08:28:25.440Z,108
2017-01-07T08:29:05.926Z,112
2017-01-07T08:29:46.415Z,116
2017-01-07T08:30:26.922Z,124
2017-01-07T08:31:08.204Z,116
2017-01-07T08:31:48.692Z,116
2017-01-07T08:32:29.183Z,132
2017-01-07T08:33:09.670Z,144
2017-01-07T08:33:50.158Z,132
2017-01-07T08:34:30.645Z,136
2017-01-07T08:35:11.147Z,148
2017-01-07T08:35:51.623Z,156
2017-01-07T08:36:32.096Z,172
2017-01-07T08:37:12.590Z,160
2017-01-07T08:37:53.080Z,152
2017-01-07T08:38:33.564Z,172
2017-01-07T08:39:14.037Z,192
2017-01-07T08:39:54.528Z,180
2017-01-07T08:40:35.043Z,192
2017-01-07T08:41:16.141Z,212
2017-01-07T08:41:56.630Z,244
2017-01-07T08:42:37.111Z,204
2017-01-07T08:43:17.607Z,260
2017-01-07T08:43:58.095Z,256
2017-01-07T08:44:38.583Z,236
2017-01-07T08:45:19.059Z,260
2017-01-07T08:45:59.546Z,304
2017-01-07T08:46:40.041Z,248
2017-01-07T08:47:20.538Z,284
2017-01-07T08:48:01.030Z,304
2017-01-07T08:48:41.514Z,332
2017-01-07T08:49:22.018Z,292
2017-01-07T08:50:02.506Z,292
2017-01-07T08:50:42.998Z,280
2017-01-07T08:51:23.486Z,344
2017-01-07T08:52:03.981Z,368
2017-01-07T08:52:44.479Z,356
2017-01-07T08:53:24.987Z,316
2017-01-07T08:54:05.470Z,272
2017-01-07T08:54:45.955Z,284
2017-01-07T08:55:26.456Z,376
2017-01-07T08:56:07.013Z,396
2017-01-07T08:56:47.497Z,344
2017-01-07T08:57:27.980Z,304
2017-01-07T08:58:08.467Z,332
2017-01-07T08:58:48.979Z,400
2017-01-07T08:59:29.471Z,364
2017-01-07T09:00:09.972Z,340
2017-01-07T09:02:38.462Z,296
2017-01-07T09:03:18.944Z,320
2017-01-07T09:03:59.433Z,356
2017-01-07T09:04:39.915Z,260
2017-01-07T09:05:20.421Z,240
2017-01-07T09:06:00.904Z,264
2017-01-07T09:06:41.396Z,396
2017-01-07T09:07:21.884Z,336
2017-01-07T09:08:02.387Z,316
2017-01-07T09:08:42.871Z,304
2017-01-07T09:09:23.353Z,256
2017-01-07T09:10:03.832Z,312
2017-01-07T09:10:44.318Z,316
2017-01-07T09:11:24.811Z,344
2017-01-07T09:12:05.314Z,304
2017-01-07T09:12:45.801Z,292
2017-01-07T09:13:26.291Z,292
2017-01-07T09:14:06.793Z,336
2017-01-07T09:14:47.410Z,252
2017-01-07T09:15:27.899Z,316
2017-01-07T09:16:08.377Z,332
2017-01-07T09:16:48.863Z,268
2017-01-07T09:17:29.343Z,268
2017-01-07T09:18:09.828Z,280
2017-01-07T09:18:50.338Z,284
2017-01-07T09:19:30.831Z,272
2017-01-07T09:20:11.335Z,256
2017-01-07T09:20:51.825Z,248
2017-01-07T09:21:32.330Z,304
2017-01-07T09:22:12.833Z,276
2017-01-07T09:22:53.326Z,276
2017-01-07T09:23:33.832Z,288
2017-01-07T09:24:14.331Z,264
2017-01-07T09:24:54.817Z,264
2017-01-07T09:25:35.322Z,264
2017-01-07T09:26:15.823Z,256
2017-01-07T09:26:56.303Z,260
2017-01-07T09:27:36.788Z,240
2017-01-07T09:28:17.277Z,228
2017-01-07T09:28:57.776Z,244
2017-01-07T09:29:38.260Z,268
2017-01-07T09:30:18.749Z,248
2017-01-07T09:30:59.235Z,268
2017-01-07T09:31:39.721Z,316
2017-01-07T09:32:20.220Z,284
2017-01-07T09:33:00.713Z,300
2017-01-07T09:33:41.216Z,268
2017-01-07T09:34:21.703Z,280
2017-01-07T09:35:02.217Z,256
2017-01-07T09:35:42.706Z,244
2017-01-07T09:36:23.216Z,316
2017-01-07T09:37:03.703Z,304
2017-01-07T09:37:44.196Z,232
2017-01-07T09:38:24.696Z,216
2017-01-07T09:39:05.174Z,260
2017-01-07T09:39:45.664Z,276
2017-01-07T09:40:26.146Z,252
2017-01-07T09:41:06.633Z,240
2017-01-07T09:41:47.120Z,248
2017-01-07T09:42:27.612Z,264
2017-01-07T09:43:08.106Z,252
2017-01-07T09:43:48.604Z,280
2017-01-07T09:44:29.110Z,296
2017-01-07T09:45:09.599Z,276
2017-01-07T09:45:50.098Z,248
2017-01-07T09:46:30.590Z,292
2017-01-07T09:47:11.080Z,296
2017-01-07T09:47:51.570Z,288
2017-01-07T09:48:32.063Z,272
2017-01-07T09:49:12.551Z,268
2017-01-07T09:49:53.032Z,300
2017-01-07T09:50:33.595Z,268
2017-01-07T09:51:14.101Z,224
2017-01-07T09:51:54.588Z,228
2017-01-07T09:52:35.077Z,260
2017-01-07T09:53:15.588Z,236
2017-01-07T09:53:56.082Z,196
2017-01-07T09:54:36.573Z,196
2017-01-07T09:55:17.058Z,208
2017-01-07T09:55:57.544Z,188
2017-01-07T09:56:38.029Z,192
2017-01-07T09:57:18.523Z,180
2017-01-07T09:57:59.005Z,212
2017-01-07T09:58:39.513Z,252